sensor_id;sensor_type;location;lat;lon;timestamp;P1;durP1;ratioP1;P2;durP2;ratioP2
38318;SDS011;24121;53.536;10.224;2022-11-15T09:07:19;33.42;;;21.90;;
38318;SDS011;24121;53.536;10.224;2022-11-15T09:09:44;34.28;;;22.50;;
38318;SDS011;24121;53.536;10.224;2022-11-15T09:12:10;37.70;;;23.67;;
38318;SDS011;24121;53.536;10.224;2022-11-15T09:14:35;34.45;;;22.38;;
38318;SDS011;24121;53.536;10.224;2022-11-15T09:17:01;33.95;;;23.52;;
38318;SDS011;24121;53.536;10.224;2022-11-15T09:19:26;29.90;;;21.35;;
38318;SDS011;24121;53.536;10.224;2022-11-15T09:21:51;26.50;;;19.90;;
38318;SDS011;24121;53.536;10.224;2022-11-15T09:24:17;34.05;;;21.60;;
38318;SDS011;24121;53.536;10.224;2022-11-15T09:26:42;29.40;;;21.33;;
38318;SDS011;24121;53.536;10.224;2022-11-15T09:29:08;29.58;;;21.08;;
38318;SDS011;24121;53.536;10.224;2022-11-15T09:31:33;29.25;;;20.55;;
38318;SDS011;24121;53.536;10.224;2022-11-15T09:33:58;27.35;;;20.27;;
38318;SDS011;24121;53.536;10.224;2022-11-15T09:36:24;26.77;;;19.05;;
38318;SDS011;24121;53.536;10.224;2022-11-15T09:38:49;25.30;;;18.67;;
38318;SDS011;24121;53.536;10.224;2022-11-15T09:43:56;22.43;;;16.97;;
38318;SDS011;24121;53.536;10.224;2022-11-15T09:46:59;23.85;;;17.40;;
38318;SDS011;24121;53.536;10.224;2022-11-15T09:49:29;23.35;;;16.88;;
38318;SDS011;24121;53.536;10.224;2022-11-15T09:51:55;24.48;;;16.60;;
38318;SDS011;24121;53.536;10.224;2022-11-15T09:54:39;19.50;;;15.77;;
38318;SDS011;24121;53.536;10.224;2022-11-15T09:59:56;19.70;;;15.35;;
38318;SDS011;24121;53.536;10.224;2022-11-15T10:05:11;20.55;;;16.45;;
38318;SDS011;24121;53.536;10.224;2022-11-15T10:12:47;18.67;;;14.93;;
38318;SDS011;24121;53.536;10.224;2022-11-15T10:15:16;19.67;;;14.85;;
38318;SDS011;24121;53.536;10.224;2022-11-15T10:20:54;22.05;;;15.52;;
38318;SDS011;24121;53.536;10.224;2022-11-15T10:23:20;20.58;;;15.95;;
38318;SDS011;24121;53.536;10.224;2022-11-15T10:25:46;19.98;;;15.40;;
38318;SDS011;24121;53.536;10.224;2022-11-15T10:28:16;23.60;;;17.42;;
38318;SDS011;24121;53.536;10.224;2022-11-15T10:30:46;21.25;;;15.57;;
38318;SDS011;24121;53.536;10.224;2022-11-15T10:33:18;20.52;;;15.25;;
38318;SDS011;24121;53.536;10.224;2022-11-15T10:35:48;20.45;;;15.43;;
38318;SDS011;24121;53.536;10.224;2022-11-15T10:38:13;18.17;;;14.40;;
38318;SDS011;24121;53.536;10.224;2022-11-15T10:40:39;21.08;;;15.70;;
38318;SDS011;24121;53.536;10.224;2022-11-15T10:43:12;17.13;;;14.75;;
38318;SDS011;24121;53.536;10.224;2022-11-15T10:45:39;19.42;;;15.60;;
38318;SDS011;24121;53.536;10.224;2022-11-15T10:50:39;19.83;;;15.43;;
38318;SDS011;24121;53.536;10.224;2022-11-15T10:53:41;18.73;;;15.65;;
38318;SDS011;24121;53.536;10.224;2022-11-15T10:56:07;17.85;;;14.73;;
38318;SDS011;24121;53.536;10.224;2022-11-15T10:58:35;19.92;;;15.65;;
38318;SDS011;24121;53.536;10.224;2022-11-15T11:01:16;18.30;;;14.52;;
38318;SDS011;24121;53.536;10.224;2022-11-15T11:03:43;17.52;;;13.23;;
38318;SDS011;24121;53.536;10.224;2022-11-15T11:06:17;17.33;;;13.57;;
38318;SDS011;24121;53.536;10.224;2022-11-15T11:11:46;17.42;;;14.05;;
38318;SDS011;24121;53.536;10.224;2022-11-15T11:14:19;18.70;;;14.02;;
38318;SDS011;24121;53.536;10.224;2022-11-15T11:16:58;18.85;;;13.95;;
38318;SDS011;24121;53.536;10.224;2022-11-15T11:19:31;18.58;;;15.15;;
38318;SDS011;24121;53.536;10.224;2022-11-15T11:22:20;20.13;;;14.90;;
38318;SDS011;24121;53.536;10.224;2022-11-15T11:24:53;23.20;;;15.07;;
38318;SDS011;24121;53.536;10.224;2022-11-15T11:35:13;16.20;;;12.38;;
38318;SDS011;24121;53.536;10.224;2022-11-15T11:37:46;17.35;;;14.43;;
38318;SDS011;24121;53.536;10.224;2022-11-15T11:42:52;15.52;;;12.68;;
38318;SDS011;24121;53.536;10.224;2022-11-15T11:45:43;18.42;;;13.73;;
38318;SDS011;24121;53.536;10.224;2022-11-15T11:48:14;16.10;;;13.68;;
38318;SDS011;24121;53.536;10.224;2022-11-15T11:50:48;20.40;;;13.95;;
38318;SDS011;24121;53.536;10.224;2022-11-15T11:53:28;21.75;;;14.75;;
38318;SDS011;24121;53.536;10.224;2022-11-15T11:55:57;17.55;;;12.90;;
38318;SDS011;24121;53.536;10.224;2022-11-15T12:01:02;18.63;;;13.98;;
38318;SDS011;24121;53.536;10.224;2022-11-15T12:03:40;17.53;;;13.80;;
38318;SDS011;24121;53.536;10.224;2022-11-15T12:08:45;15.27;;;13.10;;
38318;SDS011;24121;53.536;10.224;2022-11-15T12:11:23;16.20;;;13.27;;
38318;SDS011;24121;53.536;10.224;2022-11-15T12:13:53;16.45;;;12.90;;
38318;SDS011;24121;53.536;10.224;2022-11-15T12:16:23;15.30;;;11.98;;
38318;SDS011;24121;53.536;10.224;2022-11-15T12:18:53;15.43;;;11.85;;
38318;SDS011;24121;53.536;10.224;2022-11-15T12:21:22;17.27;;;13.00;;
38318;SDS011;24121;53.536;10.224;2022-11-15T12:23:54;16.88;;;12.48;;
38318;SDS011;24121;53.536;10.224;2022-11-15T12:26:26;16.60;;;12.90;;
38318;SDS011;24121;53.536;10.224;2022-11-15T12:28:56;16.75;;;11.88;;
38318;SDS011;24121;53.536;10.224;2022-11-15T12:31:31;16.73;;;12.98;;
38318;SDS011;24121;53.536;10.224;2022-11-15T12:36:30;15.48;;;11.75;;
38318;SDS011;24121;53.536;10.224;2022-11-15T12:39:03;16.25;;;12.10;;
38318;SDS011;24121;53.536;10.224;2022-11-15T12:41:33;15.25;;;12.23;;
38318;SDS011;24121;53.536;10.224;2022-11-15T12:43:59;14.52;;;11.75;;
38318;SDS011;24121;53.536;10.224;2022-11-15T12:48:54;12.73;;;10.85;;
38318;SDS011;24121;53.536;10.224;2022-11-15T12:51:22;15.85;;;11.82;;
38318;SDS011;24121;53.536;10.224;2022-11-15T13:17:49;12.93;;;10.73;;
38318;SDS011;24121;53.536;10.224;2022-11-15T13:22:44;13.00;;;10.75;;
38318;SDS011;24121;53.536;10.224;2022-11-15T13:36:02;12.98;;;10.00;;
38318;SDS011;24121;53.536;10.224;2022-11-15T13:38:37;12.35;;;10.55;;
38318;SDS011;24121;53.536;10.224;2022-11-15T13:41:20;13.00;;;11.00;;
38318;SDS011;24121;53.536;10.224;2022-11-15T13:43:47;14.60;;;11.35;;
38318;SDS011;24121;53.536;10.224;2022-11-15T13:46:20;16.05;;;11.45;;
38318;SDS011;24121;53.536;10.224;2022-11-15T13:56:32;13.48;;;11.15;;
38318;SDS011;24121;53.536;10.224;2022-11-15T13:58:59;13.05;;;10.73;;
38318;SDS011;24121;53.536;10.224;2022-11-15T14:01:24;14.38;;;11.50;;
38318;SDS011;24121;53.536;10.224;2022-11-15T14:03:54;15.45;;;10.52;;
38318;SDS011;24121;53.536;10.224;2022-11-15T14:06:22;15.25;;;11.27;;
38318;SDS011;24121;53.536;10.224;2022-11-15T14:09:00;12.43;;;9.68;;
38318;SDS011;24121;53.536;10.224;2022-11-15T14:11:28;12.93;;;9.45;;
38318;SDS011;24121;53.536;10.224;2022-11-15T14:19:01;12.40;;;10.30;;
38318;SDS011;24121;53.536;10.224;2022-11-15T14:21:27;11.60;;;9.88;;
38318;SDS011;24121;53.536;10.224;2022-11-15T14:23:52;12.30;;;10.00;;
38318;SDS011;24121;53.536;10.224;2022-11-15T14:26:31;17.75;;;11.25;;
38318;SDS011;24121;53.536;10.224;2022-11-15T14:31:46;11.18;;;9.88;;
38318;SDS011;24121;53.536;10.224;2022-11-15T14:34:12;12.75;;;9.15;;
38318;SDS011;24121;53.536;10.224;2022-11-15T14:36:37;12.18;;;9.93;;
38318;SDS011;24121;53.536;10.224;2022-11-15T14:39:02;13.43;;;10.20;;
38318;SDS011;24121;53.536;10.224;2022-11-15T14:41:33;11.70;;;9.70;;
38318;SDS011;24121;53.536;10.224;2022-11-15T14:44:02;12.18;;;8.80;;
38318;SDS011;24121;53.536;10.224;2022-11-15T14:46:28;11.80;;;10.02;;
38318;SDS011;24121;53.536;10.224;2022-11-15T14:48:53;11.82;;;9.82;;
38318;SDS011;24121;53.536;10.224;2022-11-15T14:51:19;12.13;;;9.52;;
38318;SDS011;24121;53.536;10.224;2022-11-15T14:53:45;14.45;;;10.35;;
38318;SDS011;24121;53.536;10.224;2022-11-15T14:56:11;11.55;;;9.50;;
38318;SDS011;24121;53.536;10.224;2022-11-15T14:58:37;11.52;;;9.55;;
38318;SDS011;24121;53.536;10.224;2022-11-15T15:01:05;13.52;;;10.85;;
38318;SDS011;24121;53.536;10.224;2022-11-15T15:03:37;14.48;;;10.00;;
38318;SDS011;24121;53.536;10.224;2022-11-15T15:06:02;13.98;;;10.68;;
38318;SDS011;24121;53.536;10.224;2022-11-15T15:08:28;12.02;;;9.85;;
38318;SDS011;24121;53.536;10.224;2022-11-15T15:10:53;13.48;;;10.23;;
38318;SDS011;24121;53.536;10.224;2022-11-15T15:13:23;11.73;;;9.98;;
38318;SDS011;24121;53.536;10.224;2022-11-15T15:15:49;9.93;;;7.57;;
38318;SDS011;24121;53.536;10.224;2022-11-15T15:18:16;13.35;;;10.38;;
38318;SDS011;24121;53.536;10.224;2022-11-15T15:20:42;13.75;;;11.25;;
38318;SDS011;24121;53.536;10.224;2022-11-15T15:23:16;13.20;;;10.48;;
38318;SDS011;24121;53.536;10.224;2022-11-15T15:25:42;13.18;;;10.30;;
38318;SDS011;24121;53.536;10.224;2022-11-15T15:28:10;16.88;;;11.20;;
38318;SDS011;24121;53.536;10.224;2022-11-15T15:30:35;16.25;;;11.48;;
38318;SDS011;24121;53.536;10.224;2022-11-15T15:33:00;13.90;;;10.98;;
38318;SDS011;24121;53.536;10.224;2022-11-15T15:35:30;13.43;;;11.57;;
38318;SDS011;24121;53.536;10.224;2022-11-15T15:37:57;12.18;;;10.00;;
38318;SDS011;24121;53.536;10.224;2022-11-15T15:40:23;13.48;;;10.15;;
38318;SDS011;24121;53.536;10.224;2022-11-15T15:42:49;13.95;;;11.43;;
38318;SDS011;24121;53.536;10.224;2022-11-15T15:45:15;14.13;;;10.68;;
38318;SDS011;24121;53.536;10.224;2022-11-15T15:47:41;14.98;;;11.55;;
38318;SDS011;24121;53.536;10.224;2022-11-15T15:52:49;14.60;;;10.75;;
38318;SDS011;24121;53.536;10.224;2022-11-15T15:55:15;14.95;;;11.50;;
38318;SDS011;24121;53.536;10.224;2022-11-15T15:57:40;15.43;;;9.93;;
38318;SDS011;24121;53.536;10.224;2022-11-15T16:00:06;16.33;;;11.48;;
38318;SDS011;24121;53.536;10.224;2022-11-15T16:02:32;16.25;;;11.75;;
38318;SDS011;24121;53.536;10.224;2022-11-15T16:04:57;13.90;;;11.55;;
38318;SDS011;24121;53.536;10.224;2022-11-15T16:07:22;13.20;;;10.68;;
38318;SDS011;24121;53.536;10.224;2022-11-15T16:09:53;13.50;;;11.50;;
38318;SDS011;24121;53.536;10.224;2022-11-15T16:12:24;14.13;;;11.30;;
38318;SDS011;24121;53.536;10.224;2022-11-15T16:14:50;15.70;;;12.15;;
38318;SDS011;24121;53.536;10.224;2022-11-15T16:17:16;16.92;;;12.02;;
38318;SDS011;24121;53.536;10.224;2022-11-15T16:19:43;16.08;;;12.88;;
38318;SDS011;24121;53.536;10.224;2022-11-15T16:22:09;16.70;;;12.15;;
38318;SDS011;24121;53.536;10.224;2022-11-15T16:24:34;18.08;;;12.40;;
38318;SDS011;24121;53.536;10.224;2022-11-15T16:26:59;16.92;;;13.57;;
38318;SDS011;24121;53.536;10.224;2022-11-15T16:29:25;17.63;;;12.00;;
38318;SDS011;24121;53.536;10.224;2022-11-15T16:31:50;15.73;;;11.52;;
38318;SDS011;24121;53.536;10.224;2022-11-15T16:34:15;16.08;;;12.45;;
38318;SDS011;24121;53.536;10.224;2022-11-15T16:36:41;16.85;;;12.52;;
38318;SDS011;24121;53.536;10.224;2022-11-15T16:39:08;18.58;;;12.05;;
38318;SDS011;24121;53.536;10.224;2022-11-15T16:41:37;17.13;;;12.48;;
38318;SDS011;24121;53.536;10.224;2022-11-15T16:44:03;15.70;;;12.20;;
38318;SDS011;24121;53.536;10.224;2022-11-15T16:46:28;14.77;;;11.73;;
38318;SDS011;24121;53.536;10.224;2022-11-15T16:48:54;16.27;;;12.57;;
38318;SDS011;24121;53.536;10.224;2022-11-15T16:51:19;14.82;;;12.20;;
38318;SDS011;24121;53.536;10.224;2022-11-15T16:53:45;17.23;;;11.73;;
38318;SDS011;24121;53.536;10.224;2022-11-15T16:58:43;14.50;;;11.15;;
38318;SDS011;24121;53.536;10.224;2022-11-15T17:01:14;15.00;;;12.10;;
38318;SDS011;24121;53.536;10.224;2022-11-15T17:03:41;18.45;;;12.95;;
38318;SDS011;24121;53.536;10.224;2022-11-15T17:06:07;14.00;;;11.52;;
38318;SDS011;24121;53.536;10.224;2022-11-15T17:08:33;16.15;;;11.38;;
38318;SDS011;24121;53.536;10.224;2022-11-15T17:10:58;16.95;;;11.75;;
38318;SDS011;24121;53.536;10.224;2022-11-15T17:13:23;15.32;;;11.52;;
38318;SDS011;24121;53.536;10.224;2022-11-15T17:15:49;17.85;;;11.70;;
38318;SDS011;24121;53.536;10.224;2022-11-15T17:18:14;13.88;;;11.05;;
38318;SDS011;24121;53.536;10.224;2022-11-15T17:20:40;17.27;;;11.50;;
38318;SDS011;24121;53.536;10.224;2022-11-15T17:23:05;17.70;;;13.02;;
38318;SDS011;24121;53.536;10.224;2022-11-15T17:28:01;15.73;;;10.75;;
38318;SDS011;24121;53.536;10.224;2022-11-15T17:30:26;15.90;;;12.05;;
38318;SDS011;24121;53.536;10.224;2022-11-15T17:32:51;15.55;;;11.55;;
38318;SDS011;24121;53.536;10.224;2022-11-15T17:35:17;14.02;;;10.38;;
38318;SDS011;24121;53.536;10.224;2022-11-15T17:37:42;13.48;;;10.65;;
38318;SDS011;24121;53.536;10.224;2022-11-15T17:40:08;17.05;;;11.38;;
38318;SDS011;24121;53.536;10.224;2022-11-15T17:42:33;16.95;;;11.07;;
38318;SDS011;24121;53.536;10.224;2022-11-15T17:44:59;14.88;;;10.35;;
38318;SDS011;24121;53.536;10.224;2022-11-15T17:47:24;14.48;;;11.30;;
38318;SDS011;24121;53.536;10.224;2022-11-15T17:49:49;14.95;;;11.00;;
38318;SDS011;24121;53.536;10.224;2022-11-15T17:52:15;15.85;;;12.20;;
38318;SDS011;24121;53.536;10.224;2022-11-15T17:54:41;14.82;;;11.05;;
38318;SDS011;24121;53.536;10.224;2022-11-15T17:57:06;14.70;;;10.95;;
38318;SDS011;24121;53.536;10.224;2022-11-15T17:59:31;14.68;;;10.60;;
38318;SDS011;24121;53.536;10.224;2022-11-15T18:01:57;16.48;;;11.65;;
38318;SDS011;24121;53.536;10.224;2022-11-15T18:04:22;15.02;;;10.98;;
38318;SDS011;24121;53.536;10.224;2022-11-15T18:06:52;16.48;;;11.18;;
38318;SDS011;24121;53.536;10.224;2022-11-15T18:09:17;12.68;;;11.00;;
38318;SDS011;24121;53.536;10.224;2022-11-15T18:11:43;13.18;;;10.88;;
38318;SDS011;24121;53.536;10.224;2022-11-15T18:14:14;14.55;;;11.60;;
38318;SDS011;24121;53.536;10.224;2022-11-15T18:16:39;16.80;;;11.93;;
38318;SDS011;24121;53.536;10.224;2022-11-15T18:19:05;14.32;;;10.68;;
38318;SDS011;24121;53.536;10.224;2022-11-15T18:21:37;15.40;;;11.25;;
38318;SDS011;24121;53.536;10.224;2022-11-15T18:24:20;15.43;;;12.45;;
38318;SDS011;24121;53.536;10.224;2022-11-15T18:26:59;15.93;;;11.73;;
38318;SDS011;24121;53.536;10.224;2022-11-15T18:29:25;16.35;;;12.85;;
38318;SDS011;24121;53.536;10.224;2022-11-15T18:31:51;17.95;;;12.73;;
38318;SDS011;24121;53.536;10.224;2022-11-15T18:34:19;14.10;;;11.98;;
38318;SDS011;24121;53.536;10.224;2022-11-15T18:39:16;18.90;;;12.90;;
38318;SDS011;24121;53.536;10.224;2022-11-15T18:41:41;15.07;;;12.45;;
38318;SDS011;24121;53.536;10.224;2022-11-15T18:44:08;17.80;;;12.82;;
38318;SDS011;24121;53.536;10.224;2022-11-15T18:46:33;15.18;;;12.38;;
38318;SDS011;24121;53.536;10.224;2022-11-15T18:48:59;19.67;;;12.80;;
38318;SDS011;24121;53.536;10.224;2022-11-15T18:51:26;17.83;;;11.82;;
38318;SDS011;24121;53.536;10.224;2022-11-15T18:56:24;16.38;;;11.85;;
38318;SDS011;24121;53.536;10.224;2022-11-15T18:58:50;19.10;;;12.90;;
38318;SDS011;24121;53.536;10.224;2022-11-15T19:01:18;16.27;;;13.15;;
38318;SDS011;24121;53.536;10.224;2022-11-15T19:03:49;17.23;;;12.60;;
38318;SDS011;24121;53.536;10.224;2022-11-15T19:06:16;17.00;;;12.20;;
38318;SDS011;24121;53.536;10.224;2022-11-15T19:08:43;16.73;;;12.70;;
38318;SDS011;24121;53.536;10.224;2022-11-15T19:11:13;18.30;;;12.68;;
38318;SDS011;24121;53.536;10.224;2022-11-15T19:16:06;16.05;;;12.10;;
38318;SDS011;24121;53.536;10.224;2022-11-15T19:18:32;14.63;;;11.57;;
38318;SDS011;24121;53.536;10.224;2022-11-15T19:21:05;15.73;;;12.55;;
38318;SDS011;24121;53.536;10.224;2022-11-15T19:23:32;16.13;;;13.20;;
38318;SDS011;24121;53.536;10.224;2022-11-15T19:25:59;14.95;;;12.20;;
38318;SDS011;24121;53.536;10.224;2022-11-15T19:28:25;17.40;;;14.00;;
38318;SDS011;24121;53.536;10.224;2022-11-15T19:30:51;20.88;;;14.63;;
38318;SDS011;24121;53.536;10.224;2022-11-15T19:33:17;19.27;;;14.75;;
38318;SDS011;24121;53.536;10.224;2022-11-15T19:35:43;19.85;;;15.10;;
38318;SDS011;24121;53.536;10.224;2022-11-15T19:38:08;19.13;;;15.02;;
38318;SDS011;24121;53.536;10.224;2022-11-15T19:40:34;18.50;;;14.00;;
38318;SDS011;24121;53.536;10.224;2022-11-15T19:42:59;20.55;;;15.55;;
38318;SDS011;24121;53.536;10.224;2022-11-15T19:45:24;19.40;;;15.25;;
38318;SDS011;24121;53.536;10.224;2022-11-15T19:47:50;18.92;;;15.57;;
38318;SDS011;24121;53.536;10.224;2022-11-15T19:50:15;18.60;;;13.93;;
38318;SDS011;24121;53.536;10.224;2022-11-15T19:52:41;19.52;;;14.80;;
38318;SDS011;24121;53.536;10.224;2022-11-15T19:55:06;19.13;;;14.90;;
38318;SDS011;24121;53.536;10.224;2022-11-15T19:57:32;20.70;;;14.25;;
38318;SDS011;24121;53.536;10.224;2022-11-15T19:59:57;21.90;;;16.15;;
38318;SDS011;24121;53.536;10.224;2022-11-15T20:02:22;20.58;;;15.13;;
38318;SDS011;24121;53.536;10.224;2022-11-15T20:04:48;21.20;;;16.15;;
38318;SDS011;24121;53.536;10.224;2022-11-15T20:07:13;22.70;;;16.40;;
38318;SDS011;24121;53.536;10.224;2022-11-15T20:09:38;21.48;;;16.42;;
38318;SDS011;24121;53.536;10.224;2022-11-15T20:12:04;19.60;;;14.85;;
38318;SDS011;24121;53.536;10.224;2022-11-15T20:14:29;25.38;;;17.40;;
38318;SDS011;24121;53.536;10.224;2022-11-15T20:16:55;19.70;;;15.85;;
38318;SDS011;24121;53.536;10.224;2022-11-15T20:19:20;22.90;;;16.95;;
38318;SDS011;24121;53.536;10.224;2022-11-15T20:21:46;25.70;;;16.77;;
38318;SDS011;24121;53.536;10.224;2022-11-15T20:24:12;21.75;;;16.40;;
38318;SDS011;24121;53.536;10.224;2022-11-15T20:26:37;23.75;;;17.65;;
38318;SDS011;24121;53.536;10.224;2022-11-15T20:29:03;24.17;;;17.85;;
38318;SDS011;24121;53.536;10.224;2022-11-15T20:31:29;24.25;;;16.15;;
38318;SDS011;24121;53.536;10.224;2022-11-15T20:33:55;23.15;;;16.92;;
38318;SDS011;24121;53.536;10.224;2022-11-15T20:36:20;23.67;;;16.65;;
38318;SDS011;24121;53.536;10.224;2022-11-15T20:38:46;22.85;;;17.27;;
38318;SDS011;24121;53.536;10.224;2022-11-15T20:41:11;26.45;;;18.75;;
38318;SDS011;24121;53.536;10.224;2022-11-15T20:43:37;21.35;;;15.00;;
38318;SDS011;24121;53.536;10.224;2022-11-15T20:46:02;21.55;;;17.13;;
38318;SDS011;24121;53.536;10.224;2022-11-15T20:48:28;22.85;;;16.00;;
38318;SDS011;24121;53.536;10.224;2022-11-15T20:51:01;23.30;;;17.98;;
38318;SDS011;24121;53.536;10.224;2022-11-15T20:53:28;23.85;;;17.50;;
38318;SDS011;24121;53.536;10.224;2022-11-15T20:55:54;22.60;;;16.90;;
38318;SDS011;24121;53.536;10.224;2022-11-15T20:58:19;22.40;;;17.63;;
38318;SDS011;24121;53.536;10.224;2022-11-15T21:00:44;23.70;;;17.13;;
38318;SDS011;24121;53.536;10.224;2022-11-15T21:03:11;22.67;;;17.67;;
38318;SDS011;24121;53.536;10.224;2022-11-15T21:05:37;22.83;;;18.20;;
38318;SDS011;24121;53.536;10.224;2022-11-15T21:08:03;22.52;;;17.27;;
38318;SDS011;24121;53.536;10.224;2022-11-15T21:10:29;20.00;;;16.15;;
38318;SDS011;24121;53.536;10.224;2022-11-15T21:13:13;21.67;;;16.52;;
38318;SDS011;24121;53.536;10.224;2022-11-15T21:15:38;23.67;;;17.48;;
38318;SDS011;24121;53.536;10.224;2022-11-15T21:18:03;24.58;;;17.52;;
38318;SDS011;24121;53.536;10.224;2022-11-15T21:20:29;20.08;;;15.02;;
38318;SDS011;24121;53.536;10.224;2022-11-15T21:22:54;23.55;;;17.30;;
38318;SDS011;24121;53.536;10.224;2022-11-15T21:25:19;21.08;;;16.90;;
38318;SDS011;24121;53.536;10.224;2022-11-15T21:27:45;23.13;;;17.13;;
38318;SDS011;24121;53.536;10.224;2022-11-15T21:30:10;22.45;;;17.33;;
38318;SDS011;24121;53.536;10.224;2022-11-15T21:32:36;20.02;;;16.77;;
38318;SDS011;24121;53.536;10.224;2022-11-15T21:35:03;27.35;;;17.65;;
38318;SDS011;24121;53.536;10.224;2022-11-15T21:37:29;23.65;;;17.02;;
38318;SDS011;24121;53.536;10.224;2022-11-15T21:39:54;23.15;;;17.95;;
38318;SDS011;24121;53.536;10.224;2022-11-15T21:42:19;20.05;;;16.27;;
38318;SDS011;24121;53.536;10.224;2022-11-15T21:44:44;26.52;;;18.58;;
38318;SDS011;24121;53.536;10.224;2022-11-15T21:47:10;21.35;;;16.77;;
38318;SDS011;24121;53.536;10.224;2022-11-15T21:49:35;22.08;;;17.55;;
38318;SDS011;24121;53.536;10.224;2022-11-15T21:52:01;22.52;;;17.35;;
38318;SDS011;24121;53.536;10.224;2022-11-15T21:54:26;23.33;;;18.85;;
38318;SDS011;24121;53.536;10.224;2022-11-15T21:56:51;22.75;;;16.95;;
38318;SDS011;24121;53.536;10.224;2022-11-15T21:59:17;24.48;;;17.92;;
38318;SDS011;24121;53.536;10.224;2022-11-15T22:01:42;22.77;;;18.65;;
38318;SDS011;24121;53.536;10.224;2022-11-15T22:04:26;21.05;;;16.70;;
38318;SDS011;24121;53.536;10.224;2022-11-15T22:06:51;22.10;;;17.42;;
38318;SDS011;24121;53.536;10.224;2022-11-15T22:09:17;23.33;;;17.27;;
38318;SDS011;24121;53.536;10.224;2022-11-15T22:11:42;25.75;;;18.55;;
38318;SDS011;24121;53.536;10.224;2022-11-15T22:14:07;23.17;;;17.75;;
38318;SDS011;24121;53.536;10.224;2022-11-15T22:16:33;22.10;;;17.35;;
38318;SDS011;24121;53.536;10.224;2022-11-15T22:18:59;22.13;;;17.48;;
38318;SDS011;24121;53.536;10.224;2022-11-15T22:21:24;23.38;;;16.55;;
38318;SDS011;24121;53.536;10.224;2022-11-15T22:23:50;23.92;;;18.33;;
38318;SDS011;24121;53.536;10.224;2022-11-15T22:26:16;21.85;;;17.35;;
38318;SDS011;24121;53.536;10.224;2022-11-15T22:28:42;22.42;;;17.15;;
38318;SDS011;24121;53.536;10.224;2022-11-15T22:31:08;25.65;;;18.30;;
38318;SDS011;24121;53.536;10.224;2022-11-15T22:33:34;23.08;;;18.20;;
38318;SDS011;24121;53.536;10.224;2022-11-15T22:36:00;23.77;;;18.33;;
38318;SDS011;24121;53.536;10.224;2022-11-15T22:38:26;22.05;;;17.17;;
38318;SDS011;24121;53.536;10.224;2022-11-15T22:40:52;24.60;;;18.02;;
38318;SDS011;24121;53.536;10.224;2022-11-15T22:43:19;22.85;;;17.77;;
38318;SDS011;24121;53.536;10.224;2022-11-15T22:45:46;22.00;;;16.90;;
38318;SDS011;24121;53.536;10.224;2022-11-15T22:48:14;25.27;;;17.42;;
38318;SDS011;24121;53.536;10.224;2022-11-15T22:50:40;23.30;;;18.23;;
38318;SDS011;24121;53.536;10.224;2022-11-15T22:53:07;22.30;;;16.75;;
38318;SDS011;24121;53.536;10.224;2022-11-15T22:55:32;24.83;;;18.02;;
38318;SDS011;24121;53.536;10.224;2022-11-15T22:57:57;21.88;;;18.13;;
38318;SDS011;24121;53.536;10.224;2022-11-15T23:00:23;24.13;;;17.05;;
38318;SDS011;24121;53.536;10.224;2022-11-15T23:02:49;22.60;;;17.10;;
38318;SDS011;24121;53.536;10.224;2022-11-15T23:05:15;21.33;;;15.20;;
38318;SDS011;24121;53.536;10.224;2022-11-15T23:07:40;22.98;;;16.73;;
38318;SDS011;24121;53.536;10.224;2022-11-15T23:10:08;24.30;;;18.35;;
38318;SDS011;24121;53.536;10.224;2022-11-15T23:12:52;23.00;;;17.42;;
38318;SDS011;24121;53.536;10.224;2022-11-15T23:15:36;22.83;;;18.77;;
